Airfield :
LOGIN :

Register | Disclaimer

   EN    FR    IT 

 










Legend :    VFR   Marginal VFR   IFR   Intensive IFR   Very Intensive IFR
Visi :
Ceiling :
>= 8 km
>= 3000ft
5 to 8 km
1000 to 3000 ft
1500m to 5 km
500 to 1000 ft
800 to 1500m
200 to 500 ft
< 800m
< 200 ft
Symbols :   Thunderstorms  Fog  Heavy snow  Heavy precipitations  Wind > 20 kt
SIGMETs :     Misc.  Thunderstorms  Icing  Turbulence  Mountain Waves  Volcanic Ashes






- Airport Elevation : 622 ft
- IATA code : BRS


EGGD - Bristol Int.

CURRENT METAR :
  • 092050Z AUTO 21004KT 180V250 9999 NCD 04/01 Q1024

EXPIRED METARs :
  • 092020Z AUTO 23005KT 9999 NCD 04/01 Q1024
  • 091950Z AUTO 23005KT 9999 NCD 04/01 Q1024
  • 091920Z AUTO 27008KT 9999 NCD 04/01 Q1024
  • 091850Z AUTO 28007KT 9999 NCD 04/01 Q1024
  • 091820Z AUTO VRB02KT 9999 NCD 05/01 Q1023

TAF TAF EGGD
Valid from the 09 at 18:00 until the 10 at 18:00 UTC


091703Z 0918/1018 29010KT 9999 FEW025
BECMG 0918/0920 23006KT
BECMG 0923/1002 17010KT
PROB30
TEMPO 1002/1009 18016G26KT
BECMG 1007/1009 18020KT
BECMG 1009/1012 19025G35KT BKN006
TEMPO 1009/1014 7000 RA
TEMPO 1014/1018 4000 RADZ
PROB40
TEMPO 1014/1016 20030G45KT 1400 +RA BKN003
BECMG 1015/1017 27020G30KT
PROB40 1017/1018 FEW010 BKN020
ATIS : +44 1275 473 666



MET'MAP, your aeronautical weather chart ! - Copyright ORBIFLY December 2007 - Disclaimer

ORBIFLY MET'MAP TEAM :

Programming & Development : Alexandra Zaïnal
Concept & original design : Baudouin d'Aumeries
Assistance for programming : Marc-Olivier Méhu
Technical & hardware support : Manuel Goepfert

Contact : metmap@orbifly.com




SOURCES & CREDITS :

   NOAA